sensor_id;sensor_type;location;lat;lon;timestamp;pressure;altitude;pressure_sealevel;temperature;humidity
3960;BME280;1994;48.640;8.894;2023-04-21T00:00:06;95754.28;;;4.89;99.38
3960;BME280;1994;48.640;8.894;2023-04-21T00:02:34;95757.44;;;4.91;99.49
3960;BME280;1994;48.640;8.894;2023-04-21T00:05:08;95754.69;;;4.86;99.33
3960;BME280;1994;48.640;8.894;2023-04-21T00:07:36;95749.97;;;4.83;99.22
3960;BME280;1994;48.640;8.894;2023-04-21T00:10:09;95747.59;;;4.81;98.86
3960;BME280;1994;48.640;8.894;2023-04-21T00:12:36;95750.78;;;4.77;99.02
3960;BME280;1994;48.640;8.894;2023-04-21T00:15:03;95752.78;;;4.75;99.14
3960;BME280;1994;48.640;8.894;2023-04-21T00:17:29;95745.66;;;4.77;99.09
3960;BME280;1994;48.640;8.894;2023-04-21T00:19:55;95743.28;;;4.75;99.34
3960;BME280;1994;48.640;8.894;2023-04-21T00:22:21;95740.69;;;4.82;98.85
3960;BME280;1994;48.640;8.894;2023-04-21T00:24:47;95736.56;;;4.81;98.75
3960;BME280;1994;48.640;8.894;2023-04-21T00:27:13;95729.09;;;4.73;98.82
3960;BME280;1994;48.640;8.894;2023-04-21T00:29:40;95732.66;;;4.72;98.82
3960;BME280;1994;48.640;8.894;2023-04-21T00:32:06;95730.19;;;4.59;97.93
3960;BME280;1994;48.640;8.894;2023-04-21T00:34:34;95728.03;;;4.56;97.91
3960;BME280;1994;48.640;8.894;2023-04-21T00:37:00;95720.16;;;4.51;97.47
3960;BME280;1994;48.640;8.894;2023-04-21T00:39:26;95718.66;;;4.37;97.57
3960;BME280;1994;48.640;8.894;2023-04-21T00:41:52;95723.00;;;4.36;97.92
3960;BME280;1994;48.640;8.894;2023-04-21T00:44:17;95728.97;;;4.24;97.78
3960;BME280;1994;48.640;8.894;2023-04-21T00:46:43;95726.63;;;4.22;98.46
3960;BME280;1994;48.640;8.894;2023-04-21T00:49:09;95723.06;;;4.17;98.31
3960;BME280;1994;48.640;8.894;2023-04-21T00:51:36;95723.81;;;4.24;97.84
3960;BME280;1994;48.640;8.894;2023-04-21T00:54:04;95722.25;;;4.23;98.21
3960;BME280;1994;48.640;8.894;2023-04-21T00:56:32;95719.94;;;4.15;98.30
3960;BME280;1994;48.640;8.894;2023-04-21T00:58:59;95720.69;;;4.22;98.61
3960;BME280;1994;48.640;8.894;2023-04-21T01:01:27;95715.75;;;4.27;98.42
3960;BME280;1994;48.640;8.894;2023-04-21T01:03:57;95714.34;;;4.31;98.22
3960;BME280;1994;48.640;8.894;2023-04-21T01:06:30;95721.44;;;4.29;97.89
3960;BME280;1994;48.640;8.894;2023-04-21T01:08:57;95727.81;;;4.20;97.79
3960;BME280;1994;48.640;8.894;2023-04-21T01:11:23;95722.25;;;4.23;97.84
3960;BME280;1994;48.640;8.894;2023-04-21T01:13:52;95720.69;;;4.22;97.43
3960;BME280;1994;48.640;8.894;2023-04-21T01:16:22;95712.00;;;4.23;97.48
3960;BME280;1994;48.640;8.894;2023-04-21T01:18:49;95710.84;;;4.19;96.95
3960;BME280;1994;48.640;8.894;2023-04-21T01:21:16;95711.25;;;4.16;96.94
3960;BME280;1994;48.640;8.894;2023-04-21T01:23:44;95719.16;;;4.08;96.90
3960;BME280;1994;48.640;8.894;2023-04-21T01:26:10;95714.44;;;4.05;96.99
3960;BME280;1994;48.640;8.894;2023-04-21T01:28:36;95720.34;;;4.12;97.10
3960;BME280;1994;48.640;8.894;2023-04-21T01:31:03;95722.16;;;4.05;97.03
3960;BME280;1994;48.640;8.894;2023-04-21T01:33:30;95723.53;;;4.01;97.46
3960;BME280;1994;48.640;8.894;2023-04-21T01:35:57;95725.91;;;3.96;97.82
3960;BME280;1994;48.640;8.894;2023-04-21T01:38:23;95720.41;;;3.99;97.79
3960;BME280;1994;48.640;8.894;2023-04-21T01:40:53;95726.66;;;4.03;97.82
3960;BME280;1994;48.640;8.894;2023-04-21T01:43:22;95724.69;;;4.05;98.18
3960;BME280;1994;48.640;8.894;2023-04-21T01:45:48;95725.91;;;3.96;98.37
3960;BME280;1994;48.640;8.894;2023-04-21T01:48:14;95728.50;;;3.83;97.80
3960;BME280;1994;48.640;8.894;2023-04-21T01:50:40;95733.44;;;3.78;98.44
3960;BME280;1994;48.640;8.894;2023-04-21T01:53:06;95725.56;;;3.79;98.11
3960;BME280;1994;48.640;8.894;2023-04-21T01:55:32;95723.97;;;3.85;98.34
3960;BME280;1994;48.640;8.894;2023-04-21T01:57:57;95721.03;;;3.88;97.81
3960;BME280;1994;48.640;8.894;2023-04-21T02:00:25;95719.59;;;3.92;98.05
3960;BME280;1994;48.640;8.894;2023-04-21T02:02:51;95721.78;;;3.95;97.66
3960;BME280;1994;48.640;8.894;2023-04-21T02:05:18;95720.41;;;3.99;96.97
3960;BME280;1994;48.640;8.894;2023-04-21T02:07:44;95726.28;;;3.99;97.16
3960;BME280;1994;48.640;8.894;2023-04-21T02:10:10;95723.94;;;3.98;96.91
3960;BME280;1994;48.640;8.894;2023-04-21T02:12:36;95732.59;;;3.97;96.46
3960;BME280;1994;48.640;8.894;2023-04-21T02:15:03;95734.97;;;3.92;96.49
3960;BME280;1994;48.640;8.894;2023-04-21T02:17:29;95742.88;;;3.90;96.23
3960;BME280;1994;48.640;8.894;2023-04-21T02:19:54;95741.31;;;3.89;96.66
3960;BME280;1994;48.640;8.894;2023-04-21T02:22:20;95727.28;;;3.92;96.73
3960;BME280;1994;48.640;8.894;2023-04-21T02:24:48;95731.63;;;3.98;96.52
3960;BME280;1994;48.640;8.894;2023-04-21T02:27:13;95733.22;;;3.86;96.63
3960;BME280;1994;48.640;8.894;2023-04-21T02:29:39;95736.59;;;3.80;96.91
3960;BME280;1994;48.640;8.894;2023-04-21T02:32:05;95729.53;;;3.69;96.91
3960;BME280;1994;48.640;8.894;2023-04-21T02:34:32;95724.81;;;3.66;96.99
3960;BME280;1994;48.640;8.894;2023-04-21T02:36:58;95724.81;;;3.66;97.43
3960;BME280;1994;48.640;8.894;2023-04-21T02:39:24;95724.81;;;3.66;98.38
3960;BME280;1994;48.640;8.894;2023-04-21T02:41:50;95725.19;;;3.76;97.81
3960;BME280;1994;48.640;8.894;2023-04-21T02:44:16;95719.28;;;3.69;98.19
3960;BME280;1994;48.640;8.894;2023-04-21T02:46:42;95719.69;;;3.66;98.01
3960;BME280;1994;48.640;8.894;2023-04-21T02:49:09;95720.09;;;3.56;98.30
3960;BME280;1994;48.640;8.894;2023-04-21T02:51:35;95725.63;;;3.60;97.86
3960;BME280;1994;48.640;8.894;2023-04-21T02:54:01;95732.72;;;3.45;97.71
3960;BME280;1994;48.640;8.894;2023-04-21T02:56:27;95729.75;;;3.48;97.90
3960;BME280;1994;48.640;8.894;2023-04-21T02:58:53;95728.38;;;3.52;97.60
3960;BME280;1994;48.640;8.894;2023-04-21T03:01:19;95728.38;;;3.58;97.55
3960;BME280;1994;48.640;8.894;2023-04-21T03:03:45;95715.38;;;3.47;97.63
3960;BME280;1994;48.640;8.894;2023-04-21T03:06:11;95718.53;;;3.49;97.69
3960;BME280;1994;48.640;8.894;2023-04-21T03:08:36;95712.66;;;3.35;97.81
3960;BME280;1994;48.640;8.894;2023-04-21T03:11:02;95698.66;;;3.25;97.89
3960;BME280;1994;48.640;8.894;2023-04-21T03:13:28;95698.09;;;3.23;98.05
3960;BME280;1994;48.640;8.894;2023-04-21T03:15:54;95705.16;;;3.21;97.72
3960;BME280;1994;48.640;8.894;2023-04-21T03:18:20;95711.06;;;3.15;98.19
3960;BME280;1994;48.640;8.894;2023-04-21T03:20:46;95711.06;;;3.28;97.90
3960;BME280;1994;48.640;8.894;2023-04-21T03:23:11;95701.63;;;3.35;97.76
3960;BME280;1994;48.640;8.894;2023-04-21T03:25:38;95694.13;;;3.33;97.50
3960;BME280;1994;48.640;8.894;2023-04-21T03:28:03;95699.63;;;3.37;97.86
3960;BME280;1994;48.640;8.894;2023-04-21T03:30:29;95694.13;;;3.40;97.92
3960;BME280;1994;48.640;8.894;2023-04-21T03:32:55;95688.22;;;3.39;97.61
3960;BME280;1994;48.640;8.894;2023-04-21T03:35:21;95693.94;;;3.28;98.22
3960;BME280;1994;48.640;8.894;2023-04-21T03:37:47;95698.28;;;3.28;97.94
3960;BME280;1994;48.640;8.894;2023-04-21T03:40:16;95700.44;;;3.31;98.08
3960;BME280;1994;48.640;8.894;2023-04-21T03:42:42;95699.28;;;3.27;97.85
3960;BME280;1994;48.640;8.894;2023-04-21T03:45:08;95702.78;;;3.32;98.25
3960;BME280;1994;48.640;8.894;2023-04-21T03:47:35;95701.63;;;3.35;98.35
3960;BME280;1994;48.640;8.894;2023-04-21T03:50:05;95696.09;;;3.38;98.35
3960;BME280;1994;48.640;8.894;2023-04-21T03:52:32;95700.81;;;3.41;98.84
3960;BME280;1994;48.640;8.894;2023-04-21T03:54:57;95702.00;;;3.38;98.67
3960;BME280;1994;48.640;8.894;2023-04-21T03:57:23;95706.34;;;3.38;99.11
3960;BME280;1994;48.640;8.894;2023-04-21T03:59:49;95703.75;;;3.44;98.64
3960;BME280;1994;48.640;8.894;2023-04-21T04:02:15;95695.69;;;3.47;98.84
3960;BME280;1994;48.640;8.894;2023-04-21T04:04:41;95699.22;;;3.53;98.52
3960;BME280;1994;48.640;8.894;2023-04-21T04:07:06;95700.41;;;3.57;98.72
3960;BME280;1994;48.640;8.894;2023-04-21T04:09:33;95698.41;;;3.59;98.35
3960;BME280;1994;48.640;8.894;2023-04-21T04:11:59;95707.50;;;3.55;98.63
3960;BME280;1994;48.640;8.894;2023-04-21T04:14:26;95701.56;;;3.61;98.26
3960;BME280;1994;48.640;8.894;2023-04-21T04:16:51;95698.44;;;3.52;98.73
3960;BME280;1994;48.640;8.894;2023-04-21T04:19:17;95706.31;;;3.51;99.01
3960;BME280;1994;48.640;8.894;2023-04-21T04:21:43;95702.75;;;3.52;99.18
3960;BME280;1994;48.640;8.894;2023-04-21T04:24:08;95705.91;;;3.54;98.55
3960;BME280;1994;48.640;8.894;2023-04-21T04:26:36;95702.78;;;3.26;99.32
3960;BME280;1994;48.640;8.894;2023-04-21T04:29:03;95710.09;;;3.16;99.65
3960;BME280;1994;48.640;8.894;2023-04-21T04:31:30;95703.97;;;3.23;99.47
3960;BME280;1994;48.640;8.894;2023-04-21T04:33:57;95704.00;;;3.17;99.50
3960;BME280;1994;48.640;8.894;2023-04-21T04:36:23;95712.25;;;3.19;99.28
3960;BME280;1994;48.640;8.894;2023-04-21T04:38:49;95708.72;;;3.13;99.39
3960;BME280;1994;48.640;8.894;2023-04-21T04:41:15;95705.19;;;3.14;100.00
3960;BME280;1994;48.640;8.894;2023-04-21T04:43:41;95708.31;;;3.23;100.00
3960;BME280;1994;48.640;8.894;2023-04-21T04:46:08;95712.44;;;2.98;99.84
3960;BME280;1994;48.640;8.894;2023-04-21T04:48:37;95704.41;;;3.01;100.00
3960;BME280;1994;48.640;8.894;2023-04-21T04:51:04;95710.66;;;3.05;99.97
3960;BME280;1994;48.640;8.894;2023-04-21T04:53:30;95712.28;;;3.06;100.00
3960;BME280;1994;48.640;8.894;2023-04-21T04:55:58;95715.03;;;3.11;100.00
3960;BME280;1994;48.640;8.894;2023-04-21T04:58:24;95711.44;;;3.18;100.00
3960;BME280;1994;48.640;8.894;2023-04-21T05:00:50;95712.25;;;3.32;100.00
3960;BME280;1994;48.640;8.894;2023-04-21T05:03:16;95715.78;;;3.44;99.74
3960;BME280;1994;48.640;8.894;2023-04-21T05:05:41;95716.16;;;3.54;99.81
3960;BME280;1994;48.640;8.894;2023-04-21T05:08:07;95718.13;;;3.52;99.28
3960;BME280;1994;48.640;8.894;2023-04-21T05:10:33;95727.22;;;3.09;100.00
3960;BME280;1994;48.640;8.894;2023-04-21T05:12:59;95732.13;;;3.10;100.00
3960;BME280;1994;48.640;8.894;2023-04-21T05:15:25;95736.25;;;3.05;100.00
3960;BME280;1994;48.640;8.894;2023-04-21T05:17:51;95731.91;;;2.99;100.00
3960;BME280;1994;48.640;8.894;2023-04-21T05:20:17;95733.53;;;3.00;100.00
3960;BME280;1994;48.640;8.894;2023-04-21T05:22:42;95739.81;;;3.04;100.00
3960;BME280;1994;48.640;8.894;2023-04-21T05:25:10;95742.16;;;3.25;100.00
3960;BME280;1994;48.640;8.894;2023-04-21T05:27:42;95739.41;;;3.39;100.00
3960;BME280;1994;48.640;8.894;2023-04-21T05:30:47;95741.00;;;3.34;100.00
3960;BME280;1994;48.640;8.894;2023-04-21T05:33:13;95741.38;;;3.31;100.00
3960;BME280;1994;48.640;8.894;2023-04-21T05:35:38;95740.19;;;3.33;100.00
3960;BME280;1994;48.640;8.894;2023-04-21T05:38:05;95747.69;;;3.41;100.00
3960;BME280;1994;48.640;8.894;2023-04-21T05:40:31;95752.00;;;3.41;100.00
3960;BME280;1994;48.640;8.894;2023-04-21T05:42:56;95749.25;;;3.36;100.00
3960;BME280;1994;48.640;8.894;2023-04-21T05:45:22;95756.34;;;3.34;100.00
3960;BME280;1994;48.640;8.894;2023-04-21T05:47:48;95756.75;;;3.44;100.00
3960;BME280;1994;48.640;8.894;2023-04-21T05:50:13;95751.81;;;3.42;100.00
3960;BME280;1994;48.640;8.894;2023-04-21T05:52:39;95748.88;;;3.39;100.00
3960;BME280;1994;48.640;8.894;2023-04-21T05:55:06;95754.38;;;3.49;100.00
3960;BME280;1994;48.640;8.894;2023-04-21T05:57:31;95758.72;;;3.22;100.00
3960;BME280;1994;48.640;8.894;2023-04-21T05:59:57;95750.84;;;3.30;100.00
3960;BME280;1994;48.640;8.894;2023-04-21T06:02:23;95742.56;;;3.41;100.00
3960;BME280;1994;48.640;8.894;2023-04-21T06:04:48;95737.25;;;3.56;100.00
3960;BME280;1994;48.640;8.894;2023-04-21T06:07:14;95735.44;;;3.63;100.00
3960;BME280;1994;48.640;8.894;2023-04-21T06:09:42;95736.59;;;3.80;100.00
3960;BME280;1994;48.640;8.894;2023-04-21T06:12:07;95727.13;;;3.87;100.00
3960;BME280;1994;48.640;8.894;2023-04-21T06:14:33;95731.03;;;4.02;100.00
3960;BME280;1994;48.640;8.894;2023-04-21T06:16:59;95728.25;;;4.04;100.00
3960;BME280;1994;48.640;8.894;2023-04-21T06:19:25;95739.75;;;3.69;100.00
3960;BME280;1994;48.640;8.894;2023-04-21T06:21:51;95745.25;;;3.79;100.00
3960;BME280;1994;48.640;8.894;2023-04-21T06:24:16;95740.72;;;3.81;100.00
3960;BME280;1994;48.640;8.894;2023-04-21T06:26:51;95739.34;;;3.85;100.00
3960;BME280;1994;48.640;8.894;2023-04-21T06:29:17;95745.44;;;3.90;100.00
3960;BME280;1994;48.640;8.894;2023-04-21T06:31:44;95732.22;;;3.93;100.00
3960;BME280;1994;48.640;8.894;2023-04-21T06:34:09;95741.28;;;3.96;100.00
3960;BME280;1994;48.640;8.894;2023-04-21T06:36:35;95734.13;;;4.11;100.00
3960;BME280;1994;48.640;8.894;2023-04-21T06:39:01;95737.19;;;4.39;100.00
3960;BME280;1994;48.640;8.894;2023-04-21T06:41:26;95726.00;;;4.64;100.00
3960;BME280;1994;48.640;8.894;2023-04-21T06:43:52;95721.75;;;4.83;100.00
3960;BME280;1994;48.640;8.894;2023-04-21T06:46:18;95720.16;;;5.13;100.00
3960;BME280;1994;48.640;8.894;2023-04-21T06:48:44;95721.09;;;5.43;100.00
3960;BME280;1994;48.640;8.894;2023-04-21T06:51:10;95731.78;;;5.64;98.24
3960;BME280;1994;48.640;8.894;2023-04-21T06:53:35;95718.25;;;5.93;97.68
3960;BME280;1994;48.640;8.894;2023-04-21T06:56:02;95724.91;;;6.01;96.56
3960;BME280;1994;48.640;8.894;2023-04-21T06:58:28;95722.19;;;5.96;97.46
3960;BME280;1994;48.640;8.894;2023-04-21T07:00:54;95725.75;;;5.95;97.83
3960;BME280;1994;48.640;8.894;2023-04-21T07:03:19;95722.25;;;6.25;97.77
3960;BME280;1994;48.640;8.894;2023-04-21T07:05:45;95722.19;;;6.32;97.38
3960;BME280;1994;48.640;8.894;2023-04-21T07:08:11;95737.66;;;6.43;98.53
3960;BME280;1994;48.640;8.894;2023-04-21T07:10:37;95728.28;;;6.49;97.07
3960;BME280;1994;48.640;8.894;2023-04-21T07:13:03;95731.84;;;6.48;97.54
3960;BME280;1994;48.640;8.894;2023-04-21T07:15:28;95730.81;;;6.67;96.67
3960;BME280;1994;48.640;8.894;2023-04-21T07:17:54;95733.78;;;6.82;95.79
3960;BME280;1994;48.640;8.894;2023-04-21T07:20:20;95723.97;;;7.02;95.78
3960;BME280;1994;48.640;8.894;2023-04-21T07:22:46;95720.00;;;7.29;95.58
3960;BME280;1994;48.640;8.894;2023-04-21T07:25:11;95717.34;;;7.47;94.63
3960;BME280;1994;48.640;8.894;2023-04-21T07:27:37;95731.25;;;7.69;95.84
3960;BME280;1994;48.640;8.894;2023-04-21T07:30:04;95721.94;;;7.68;92.91
3960;BME280;1994;48.640;8.894;2023-04-21T07:32:31;95715.31;;;7.72;91.20
3960;BME280;1994;48.640;8.894;2023-04-21T07:34:58;95724.59;;;7.73;90.64
3960;BME280;1994;48.640;8.894;2023-04-21T07:37:25;95727.19;;;7.96;92.17
3960;BME280;1994;48.640;8.894;2023-04-21T07:39:51;95723.66;;;8.13;92.06
3960;BME280;1994;48.640;8.894;2023-04-21T07:42:17;95718.84;;;8.17;90.13
3960;BME280;1994;48.640;8.894;2023-04-21T07:44:43;95729.38;;;8.27;90.92
3960;BME280;1994;48.640;8.894;2023-04-21T07:47:08;95721.50;;;8.45;89.97
3960;BME280;1994;48.640;8.894;2023-04-21T07:49:34;95722.16;;;8.52;91.28
3960;BME280;1994;48.640;8.894;2023-04-21T07:52:00;95715.50;;;8.84;88.66
3960;BME280;1994;48.640;8.894;2023-04-21T07:54:26;95716.00;;;9.14;87.33
3960;BME280;1994;48.640;8.894;2023-04-21T07:56:51;95715.47;;;9.45;88.66
3960;BME280;1994;48.640;8.894;2023-04-21T07:59:17;95712.28;;;9.38;84.86
3960;BME280;1994;48.640;8.894;2023-04-21T08:01:43;95710.53;;;9.43;86.40
3960;BME280;1994;48.640;8.894;2023-04-21T08:04:09;95709.50;;;10.15;85.71
3960;BME280;1994;48.640;8.894;2023-04-21T08:06:34;95702.41;;;10.27;84.00
3960;BME280;1994;48.640;8.894;2023-04-21T08:09:00;95702.47;;;11.07;81.74
3960;BME280;1994;48.640;8.894;2023-04-21T08:11:26;95698.63;;;11.82;78.77
3960;BME280;1994;48.640;8.894;2023-04-21T08:13:53;95698.84;;;12.99;69.65
3960;BME280;1994;48.640;8.894;2023-04-21T08:16:18;95696.69;;;14.06;69.46
3960;BME280;1994;48.640;8.894;2023-04-21T08:18:44;95710.84;;;13.35;70.44
3960;BME280;1994;48.640;8.894;2023-04-21T08:21:10;95699.81;;;14.08;66.83
3960;BME280;1994;48.640;8.894;2023-04-21T08:23:36;95688.31;;;14.34;65.96
3960;BME280;1994;48.640;8.894;2023-04-21T08:26:02;95687.50;;;14.33;65.93
3960;BME280;1994;48.640;8.894;2023-04-21T08:28:28;95688.69;;;14.61;63.41
3960;BME280;1994;48.640;8.894;2023-04-21T08:30:53;95692.88;;;15.00;62.90
3960;BME280;1994;48.640;8.894;2023-04-21T08:33:22;95692.59;;;14.63;64.16
3960;BME280;1994;48.640;8.894;2023-04-21T08:35:47;95686.16;;;15.90;60.62
3960;BME280;1994;48.640;8.894;2023-04-21T08:38:13;95692.63;;;16.68;57.25
3960;BME280;1994;48.640;8.894;2023-04-21T08:40:39;95694.47;;;16.86;56.31
3960;BME280;1994;48.640;8.894;2023-04-21T08:43:07;95698.41;;;17.89;55.47
3960;BME280;1994;48.640;8.894;2023-04-21T08:45:34;95690.81;;;17.88;54.38
3960;BME280;1994;48.640;8.894;2023-04-21T08:48:01;95688.66;;;17.44;53.87
3960;BME280;1994;48.640;8.894;2023-04-21T08:50:30;95692.78;;;16.95;54.21
3960;BME280;1994;48.640;8.894;2023-04-21T08:52:56;95697.31;;;17.45;55.93
3960;BME280;1994;48.640;8.894;2023-04-21T08:55:28;95695.28;;;18.01;53.31
3960;BME280;1994;48.640;8.894;2023-04-21T08:57:54;95699.34;;;17.29;54.75
3960;BME280;1994;48.640;8.894;2023-04-21T09:00:20;95698.44;;;17.39;53.99
3960;BME280;1994;48.640;8.894;2023-04-21T09:02:58;95692.81;;;17.45;54.14
3960;BME280;1994;48.640;8.894;2023-04-21T09:05:26;95693.47;;;17.19;54.01
3960;BME280;1994;48.640;8.894;2023-04-21T09:08:10;95692.28;;;17.30;55.26
3960;BME280;1994;48.640;8.894;2023-04-21T09:10:48;95681.13;;;18.56;53.65
3960;BME280;1994;48.640;8.894;2023-04-21T09:13:16;95679.41;;;18.51;50.44
3960;BME280;1994;48.640;8.894;2023-04-21T09:15:48;95672.13;;;18.35;53.06
3960;BME280;1994;48.640;8.894;2023-04-21T09:18:19;95679.34;;;18.92;52.87
3960;BME280;1994;48.640;8.894;2023-04-21T09:20:48;95672.84;;;19.25;50.08
3960;BME280;1994;48.640;8.894;2023-04-21T09:23:14;95679.59;;;18.28;51.83
3960;BME280;1994;48.640;8.894;2023-04-21T09:25:44;95662.47;;;18.71;51.90
3960;BME280;1994;48.640;8.894;2023-04-21T09:28:12;95680.97;;;18.39;52.73
3960;BME280;1994;48.640;8.894;2023-04-21T09:30:40;95683.72;;;17.24;55.43
3960;BME280;1994;48.640;8.894;2023-04-21T09:33:06;95682.19;;;18.01;55.06
3960;BME280;1994;48.640;8.894;2023-04-21T09:35:35;95674.09;;;18.92;51.46
3960;BME280;1994;48.640;8.894;2023-04-21T09:38:03;95662.09;;;18.64;52.17
3960;BME280;1994;48.640;8.894;2023-04-21T09:40:29;95664.59;;;18.82;52.65
3960;BME280;1994;48.640;8.894;2023-04-21T09:42:55;95666.03;;;19.24;51.90
3960;BME280;1994;48.640;8.894;2023-04-21T09:45:26;95656.63;;;20.06;48.50
3960;BME280;1994;48.640;8.894;2023-04-21T09:47:56;95651.63;;;19.96;48.86
3960;BME280;1994;48.640;8.894;2023-04-21T09:50:23;95647.13;;;20.27;48.48
3960;BME280;1994;48.640;8.894;2023-04-21T09:52:52;95652.78;;;19.29;48.84
3960;BME280;1994;48.640;8.894;2023-04-21T09:55:21;95647.44;;;18.98;50.83
3960;BME280;1994;48.640;8.894;2023-04-21T09:57:50;95658.69;;;19.87;49.62
3960;BME280;1994;48.640;8.894;2023-04-21T10:00:17;95650.00;;;19.78;49.58
3960;BME280;1994;48.640;8.894;2023-04-21T10:02:50;95655.75;;;19.58;49.86
3960;BME280;1994;48.640;8.894;2023-04-21T10:05:17;95642.75;;;19.53;51.30
3960;BME280;1994;48.640;8.894;2023-04-21T10:07:44;95647.78;;;19.41;50.67
3960;BME280;1994;48.640;8.894;2023-04-21T10:10:26;95651.69;;;19.52;50.20
3960;BME280;1994;48.640;8.894;2023-04-21T10:12:53;95641.78;;;19.49;50.38
3960;BME280;1994;48.640;8.894;2023-04-21T10:15:38;95639.25;;;19.00;51.83
3960;BME280;1994;48.640;8.894;2023-04-21T10:18:20;95643.56;;;19.18;52.30
3960;BME280;1994;48.640;8.894;2023-04-21T10:21:00;95638.31;;;18.96;53.28
3960;BME280;1994;48.640;8.894;2023-04-21T10:34:11;95626.22;;;18.95;51.94
3960;BME280;1994;48.640;8.894;2023-04-21T10:37:06;95626.75;;;19.19;50.37
3960;BME280;1994;48.640;8.894;2023-04-21T10:39:34;95624.34;;;18.87;50.63
3960;BME280;1994;48.640;8.894;2023-04-21T10:42:21;95631.81;;;18.31;51.93
3960;BME280;1994;48.640;8.894;2023-04-21T10:47:43;95624.91;;;18.84;50.55
3960;BME280;1994;48.640;8.894;2023-04-21T10:50:27;95619.88;;;18.87;51.01
3960;BME280;1994;48.640;8.894;2023-04-21T10:53:11;95625.38;;;18.64;50.16
3960;BME280;1994;48.640;8.894;2023-04-21T10:55:38;95622.09;;;18.18;53.10
3960;BME280;1994;48.640;8.894;2023-04-21T10:58:06;95615.31;;;18.03;53.45
3960;BME280;1994;48.640;8.894;2023-04-21T11:00:34;95615.91;;;18.14;53.33
3960;BME280;1994;48.640;8.894;2023-04-21T11:03:05;95622.25;;;18.62;52.61
3960;BME280;1994;48.640;8.894;2023-04-21T11:05:39;95614.47;;;19.14;49.58
3960;BME280;1994;48.640;8.894;2023-04-21T11:08:10;95613.00;;;19.00;52.20
3960;BME280;1994;48.640;8.894;2023-04-21T11:10:54;95610.03;;;19.15;51.30
3960;BME280;1994;48.640;8.894;2023-04-21T11:13:21;95607.31;;;18.62;51.05
3960;BME280;1994;48.640;8.894;2023-04-21T11:16:04;95611.41;;;18.55;51.59
3960;BME280;1994;48.640;8.894;2023-04-21T11:18:37;95602.66;;;19.03;51.05
3960;BME280;1994;48.640;8.894;2023-04-21T11:21:12;95601.19;;;19.33;52.06
3960;BME280;1994;48.640;8.894;2023-04-21T11:23:41;95599.09;;;19.74;49.25
3960;BME280;1994;48.640;8.894;2023-04-21T11:26:12;95597.38;;;19.61;51.38
3960;BME280;1994;48.640;8.894;2023-04-21T11:28:40;95592.09;;;19.61;49.23
3960;BME280;1994;48.640;8.894;2023-04-21T11:31:09;95592.34;;;19.81;49.50
3960;BME280;1994;48.640;8.894;2023-04-21T11:33:37;95587.53;;;19.00;51.49
3960;BME280;1994;48.640;8.894;2023-04-21T11:36:07;95592.59;;;19.19;51.36
3960;BME280;1994;48.640;8.894;2023-04-21T11:38:42;95593.47;;;19.89;49.94
3960;BME280;1994;48.640;8.894;2023-04-21T11:41:08;95594.28;;;20.88;46.93
3960;BME280;1994;48.640;8.894;2023-04-21T11:43:36;95596.41;;;20.86;47.80
3960;BME280;1994;48.640;8.894;2023-04-21T11:46:32;95589.94;;;21.26;47.14
3960;BME280;1994;48.640;8.894;2023-04-21T11:49:10;95588.31;;;20.23;48.73
3960;BME280;1994;48.640;8.894;2023-04-21T11:51:41;95579.72;;;20.65;47.72
3960;BME280;1994;48.640;8.894;2023-04-21T11:54:10;95577.50;;;20.33;49.27
3960;BME280;1994;48.640;8.894;2023-04-21T11:56:41;95571.31;;;20.29;49.54
3960;BME280;1994;48.640;8.894;2023-04-21T11:59:17;95573.13;;;20.20;49.53
3960;BME280;1994;48.640;8.894;2023-04-21T12:01:50;95570.25;;;19.91;52.38
3960;BME280;1994;48.640;8.894;2023-04-21T12:04:22;95568.88;;;19.93;52.34
3960;BME280;1994;48.640;8.894;2023-04-21T12:07:01;95562.41;;;19.99;51.17
3960;BME280;1994;48.640;8.894;2023-04-21T12:09:28;95560.50;;;20.47;51.53
3960;BME280;1994;48.640;8.894;2023-04-21T12:11:56;95567.31;;;20.57;51.58
3960;BME280;1994;48.640;8.894;2023-04-21T12:14:24;95559.13;;;20.58;49.63
3960;BME280;1994;48.640;8.894;2023-04-21T12:16:56;95561.31;;;20.90;49.65
3960;BME280;1994;48.640;8.894;2023-04-21T12:19:38;95553.25;;;20.70;51.42
3960;BME280;1994;48.640;8.894;2023-04-21T12:22:14;95556.03;;;20.65;51.12
3960;BME280;1994;48.640;8.894;2023-04-21T12:24:40;95557.84;;;20.22;52.11
3960;BME280;1994;48.640;8.894;2023-04-21T12:27:07;95552.44;;;20.27;50.70
3960;BME280;1994;48.640;8.894;2023-04-21T12:29:33;95558.78;;;19.87;51.81
3960;BME280;1994;48.640;8.894;2023-04-21T12:32:04;95555.91;;;19.27;53.71
3960;BME280;1994;48.640;8.894;2023-04-21T12:34:30;95553.47;;;19.70;53.82
3960;BME280;1994;48.640;8.894;2023-04-21T12:36:56;95551.81;;;20.30;52.93
3960;BME280;1994;48.640;8.894;2023-04-21T12:39:21;95559.88;;;20.42;51.99
3960;BME280;1994;48.640;8.894;2023-04-21T12:41:47;95564.84;;;20.77;51.13
3960;BME280;1994;48.640;8.894;2023-04-21T12:44:13;95565.78;;;20.73;51.91
3960;BME280;1994;48.640;8.894;2023-04-21T12:46:40;95560.69;;;20.93;51.55
3960;BME280;1994;48.640;8.894;2023-04-21T12:49:06;95551.38;;;21.04;48.30
3960;BME280;1994;48.640;8.894;2023-04-21T12:51:35;95550.25;;;21.31;48.77
3960;BME280;1994;48.640;8.894;2023-04-21T12:54:01;95548.16;;;21.53;49.20
3960;BME280;1994;48.640;8.894;2023-04-21T12:56:27;95555.56;;;21.14;48.75
3960;BME280;1994;48.640;8.894;2023-04-21T12:58:53;95554.91;;;21.17;49.54
3960;BME280;1994;48.640;8.894;2023-04-21T13:01:21;95551.88;;;19.99;51.47
3960;BME280;1994;48.640;8.894;2023-04-21T13:03:46;95553.72;;;20.89;49.41
3960;BME280;1994;48.640;8.894;2023-04-21T13:06:12;95559.34;;;21.88;48.67
3960;BME280;1994;48.640;8.894;2023-04-21T13:08:38;95554.34;;;21.57;48.65
3960;BME280;1994;48.640;8.894;2023-04-21T13:11:04;95551.59;;;21.45;48.68
3960;BME280;1994;48.640;8.894;2023-04-21T13:13:30;95546.34;;;22.41;46.81
3960;BME280;1994;48.640;8.894;2023-04-21T13:15:56;95548.38;;;22.35;46.79
3960;BME280;1994;48.640;8.894;2023-04-21T13:18:22;95537.47;;;21.50;48.23
3960;BME280;1994;48.640;8.894;2023-04-21T13:20:47;95537.09;;;22.06;47.78
3960;BME280;1994;48.640;8.894;2023-04-21T13:23:13;95541.44;;;21.73;47.17
3960;BME280;1994;48.640;8.894;2023-04-21T13:25:40;95537.53;;;22.08;46.82
3960;BME280;1994;48.640;8.894;2023-04-21T13:28:06;95538.38;;;22.70;46.56
3960;BME280;1994;48.640;8.894;2023-04-21T13:30:33;95538.09;;;23.04;43.88
3960;BME280;1994;48.640;8.894;2023-04-21T13:32:59;95536.28;;;22.96;43.99
3960;BME280;1994;48.640;8.894;2023-04-21T13:35:25;95533.22;;;22.94;43.35
3960;BME280;1994;48.640;8.894;2023-04-21T13:37:51;95533.63;;;22.14;45.31
3960;BME280;1994;48.640;8.894;2023-04-21T13:40:16;95535.53;;;22.05;46.16
3960;BME280;1994;48.640;8.894;2023-04-21T13:42:42;95532.13;;;21.29;45.71